Time;durP1;ratioP1;P1;durP2;ratioP2;P2;SDS_P1;SDS_P2;PMS_P1;PMS_P2;Temp;Humidity;BMP_temperature;BMP_pressure;BME280_temperature;BME280_humidity;BME280_pressure;Samples;Min_cycle;Max_cycle;Signal;HPM_P1;HPM_P2
2024/03/05 00:04:36;;;;;;;14.73;3.50;;;;;;;15.01;100.00;100653.19;10479522;28;20485;-81
2024/03/05 00:09:59;;;;;;;20.92;3.35;;;;;;;15.01;100.00;100657.59;10492820;28;20110;-81
2024/03/05 00:15:22;;;;;;;11.07;2.95;;;;;;;14.98;100.00;100653.16;10478472;28;20488;-81
2024/03/05 00:20:45;;;;;;;14.20;2.58;;;;;;;14.98;100.00;100663.81;10520404;28;20044;-81
2024/03/05 00:26:08;;;;;;;14.27;2.55;;;;;;;14.96;100.00;100660.28;10516041;27;20044;-81
2024/03/05 00:31:32;;;;;;;14.88;2.50;;;;;;;14.89;100.00;100661.19;10467532;28;20060;-81
2024/03/05 00:36:55;;;;;;;13.48;3.33;;;;;;;14.83;100.00;100657.69;10501059;28;20064;-81
2024/03/05 00:42:17;;;;;;;15.43;2.95;;;;;;;14.79;100.00;100648.81;10506084;28;20391;-80
2024/03/05 00:47:42;;;;;;;11.48;2.72;;;;;;;14.80;100.00;100636.41;10520291;28;20052;-80
2024/03/05 00:53:05;;;;;;;15.82;2.72;;;;;;;14.93;100.00;100615.09;10471632;28;20040;-80
2024/03/05 00:58:28;;;;;;;13.02;3.10;;;;;;;15.00;100.00;100603.53;10463759;28;20568;-81
2024/03/05 01:03:52;;;;;;;11.68;2.83;;;;;;;15.06;100.00;100581.34;10505689;28;20549;-81
2024/03/05 01:09:18;;;;;;;16.65;3.15;;;;;;;15.21;100.00;100577.72;10462902;28;20056;-81
2024/03/05 01:14:41;;;;;;;16.88;3.42;;;;;;;15.27;100.00;100573.25;10473132;28;20060;-81
2024/03/05 01:20:10;;;;;;;19.30;3.10;;;;;;;15.40;100.00;100588.25;10490411;28;20044;-82
2024/03/05 01:25:33;;;;;;;20.75;3.53;;;;;;;15.48;100.00;100581.09;10474668;28;20060;-81
2024/03/05 01:30:55;;;;;;;23.00;3.05;;;;;;;15.56;100.00;100557.09;10495335;28;20488;-80
2024/03/05 01:36:19;;;;;;;25.55;3.60;;;;;;;15.59;100.00;100551.78;10471138;28;20044;-82
2024/03/05 01:41:43;;;;;;;16.40;2.88;;;;;;;15.56;100.00;100551.78;10503319;28;20492;-80
2024/03/05 01:47:06;;;;;;;18.70;3.58;;;;;;;15.68;100.00;100562.34;10490568;28;20053;-80
2024/03/05 01:52:30;;;;;;;22.35;3.17;;;;;;;15.76;100.00;100559.59;10453536;28;20052;-81
2024/03/05 01:57:53;;;;;;;18.92;3.15;;;;;;;15.81;100.00;100573.78;10475584;28;20052;-81
2024/03/05 02:03:17;;;;;;;21.25;4.30;;;;;;;16.04;100.00;100601.06;10503557;28;20139;-81
2024/03/05 02:08:41;;;;;;;23.92;3.75;;;;;;;16.38;100.00;100619.38;10475830;28;20131;-82
2024/03/05 02:14:03;;;;;;;16.90;2.92;;;;;;;16.74;100.00;100619.84;10467743;28;20057;-83
2024/03/05 02:19:26;;;;;;;21.70;3.47;;;;;;;16.77;100.00;100608.28;10481657;28;20052;-82
2024/03/05 02:24:50;;;;;;;15.35;2.97;;;;;;;16.76;100.00;100602.97;10511783;28;20562;-82
2024/03/05 02:30:15;;;;;;;26.02;3.50;;;;;;;16.52;100.00;100602.34;10486020;28;20135;-84
2024/03/05 02:35:38;;;;;;;18.42;2.92;;;;;;;16.09;100.00;100596.56;10526710;28;20109;-85
2024/03/05 02:41:02;;;;;;;28.55;3.90;;;;;;;15.82;100.00;100605.66;10494899;28;20136;-84
2024/03/05 02:46:26;;;;;;;34.05;4.35;;;;;;;15.88;100.00;100618.06;10483384;28;20045;-84
2024/03/05 02:51:49;;;;;;;36.05;4.78;;;;;;;15.90;100.00;100611.81;10484039;28;20052;-84
2024/03/05 02:57:13;;;;;;;30.48;5.07;;;;;;;15.73;100.00;100600.44;10505684;28;20076;-85
2024/03/05 03:02:36;;;;;;;24.40;4.20;;;;;;;15.58;100.00;100597.00;10484699;28;20052;-85
2024/03/05 03:07:59;;;;;;;26.80;4.90;;;;;;;15.77;100.00;100602.19;10493802;28;20044;-86
2024/03/05 03:13:23;;;;;;;32.35;5.05;;;;;;;15.77;100.00;100575.56;10501699;28;20048;-85
2024/03/05 03:18:46;;;;;;;29.25;4.47;;;;;;;15.90;100.00;100566.56;10481703;28;20051;-85
2024/03/05 03:24:09;;;;;;;35.55;5.13;;;;;;;15.76;100.00;100563.13;10480983;28;20381;-87
2024/03/05 03:29:34;;;;;;;38.25;5.30;;;;;;;15.63;100.00;100556.16;10485170;28;20518;-85
2024/03/05 03:34:56;;;;;;;44.97;6.20;;;;;;;15.90;100.00;100547.03;10519234;28;20064;-84
2024/03/05 03:40:20;;;;;;;46.03;6.18;;;;;;;16.07;100.00;100546.91;10495025;28;20083;-85
2024/03/05 03:45:44;;;;;;;36.72;5.40;;;;;;;16.22;100.00;100565.34;10494836;28;20059;-84
2024/03/05 03:51:07;;;;;;;42.05;5.10;;;;;;;16.07;100.00;100549.56;10480681;28;20094;-84
2024/03/05 03:56:30;;;;;;;37.15;7.50;;;;;;;16.09;100.00;100548.63;10481343;28;20052;-86
2024/03/05 04:01:54;;;;;;;40.08;5.82;;;;;;;16.09;100.00;100548.63;10508354;28;20076;-85
2024/03/05 04:07:18;;;;;;;45.42;6.75;;;;;;;16.09;100.00;100521.09;10480606;28;20484;-86
2024/03/05 04:12:40;;;;;;;47.30;6.70;;;;;;;15.79;100.00;100509.00;10468566;28;20055;-86
2024/03/05 04:18:05;;;;;;;43.40;6.03;;;;;;;15.86;100.00;100511.59;10478447;28;20044;-86
2024/03/05 04:23:28;;;;;;;47.05;6.75;;;;;;;15.84;100.00;100516.03;10493094;28;20413;-86
2024/03/05 04:28:52;;;;;;;35.10;4.25;;;;;;;15.82;100.00;100517.81;10479002;28;20144;-84
2024/03/05 04:34:18;;;;;;;47.13;7.50;;;;;;;15.80;100.00;100527.63;10479187;28;20052;-85
2024/03/05 04:39:43;;;;;;;44.80;6.88;;;;;;;15.78;100.00;100542.72;10493317;28;20139;-84
2024/03/05 04:45:06;;;;;;;56.65;7.72;;;;;;;15.86;100.00;100547.97;10478469;28;20059;-84
2024/03/05 04:50:30;;;;;;;55.97;8.27;;;;;;;15.93;100.00;100585.19;10492706;28;20526;-84
2024/03/05 04:55:54;;;;;;;49.00;5.50;;;;;;;16.18;100.00;100608.91;10478391;28;20136;-83
2024/03/05 05:01:17;;;;;;;41.28;6.15;;;;;;;16.43;100.00;100609.53;10447886;28;20052;-84
2024/03/05 05:06:42;;;;;;;41.13;7.63;;;;;;;16.59;100.00;100604.03;10493241;28;20053;-84
2024/03/05 05:12:04;;;;;;;28.40;4.05;;;;;;;16.57;100.00;100613.81;10477800;28;20507;-84
2024/03/05 05:17:28;;;;;;;25.58;5.28;;;;;;;16.43;100.00;100625.53;10466587;28;20571;-84
2024/03/05 05:22:52;;;;;;;32.53;4.72;;;;;;;16.40;100.00;100629.13;10505378;28;20443;-83
2024/03/05 05:28:15;;;;;;;22.00;5.07;;;;;;;16.47;100.00;100636.16;10491279;28;20105;-83
2024/03/05 05:33:37;;;;;;;22.27;6.90;;;;;;;16.47;100.00;100646.81;10476310;28;20051;-83
2024/03/05 05:39:02;;;;;;;23.05;3.90;;;;;;;16.60;100.00;100650.25;10491556;28;20557;-83
2024/03/05 05:44:24;;;;;;;22.23;4.18;;;;;;;16.70;100.00;100657.25;10477364;28;20059;-83
2024/03/05 05:49:47;;;;;;;22.60;4.60;;;;;;;16.80;100.00;100650.03;10464184;28;20140;-83
2024/03/05 05:55:14;;;;;;;17.77;3.20;;;;;;;16.99;100.00;100657.81;10486463;28;20048;-82
2024/03/05 06:00:37;;;;;;;18.05;3.30;;;;;;;17.20;100.00;100666.44;10503650;28;20049;-82
2024/03/05 06:06:00;;;;;;;18.27;2.92;;;;;;;17.37;100.00;100659.97;10496545;28;20048;-81
2024/03/05 06:11:23;;;;;;;18.20;4.13;;;;;;;17.46;100.00;100665.16;10497937;28;20516;-82
2024/03/05 06:16:46;;;;;;;18.33;3.08;;;;;;;17.64;100.00;100663.16;10483047;28;20036;-82
2024/03/05 06:22:09;;;;;;;19.00;3.88;;;;;;;17.80;100.00;100662.91;10483934;28;20055;-82
2024/03/05 06:27:35;;;;;;;19.73;3.65;;;;;;;18.37;100.00;100664.66;10483648;28;20049;-82
2024/03/05 06:32:58;;;;;;;20.45;4.35;;;;;;;20.47;100.00;100666.28;10484063;28;20036;-83
2024/03/05 06:38:22;;;;;;;19.65;3.08;;;;;;;19.72;100.00;100676.16;10483975;28;20049;-82
2024/03/05 06:43:47;;;;;;;18.45;3.20;;;;;;;20.82;100.00;100676.94;10497910;28;20049;-82
2024/03/05 06:49:14;;;;;;;11.45;2.45;;;;;;;21.04;100.00;100670.03;10484814;28;20048;-83
2024/03/05 07:00:19;;;;;;;9.48;2.50;;;;;;;27.03;66.31;100671.50;10442268;28;20071;-82
2024/03/05 07:05:42;;;;;;;8.73;2.90;;;;;;;28.76;53.00;100670.53;10467707;28;20051;-81
2024/03/05 07:11:07;;;;;;;12.02;2.25;;;;;;;30.85;46.13;100666.72;10489285;28;20090;-83
2024/03/05 07:16:33;;;;;;;23.70;2.72;;;;;;;29.07;42.88;100668.66;10481533;28;20135;-82
2024/03/05 07:21:55;;;;;;;13.60;2.20;;;;;;;30.34;43.57;100671.16;10494187;28;20071;-82
2024/03/05 07:27:18;;;;;;;10.50;2.83;;;;;;;33.31;35.79;100679.19;10468443;28;20044;-82
2024/03/05 07:32:42;;;;;;;16.50;2.97;;;;;;;33.83;32.82;100681.31;10467810;28;20056;-82
2024/03/05 07:38:07;;;;;;;15.52;3.15;;;;;;;32.26;33.57;100682.81;10503276;28;20052;-83
2024/03/05 07:43:29;;;;;;;19.98;3.28;;;;;;;30.19;35.60;100685.84;10492383;28;20047;-83
2024/03/05 07:48:53;;;;;;;18.48;3.53;;;;;;;31.06;34.84;100678.00;10480740;28;20052;-83
2024/03/05 07:54:16;;;;;;;10.60;3.42;;;;;;;30.03;36.95;100696.88;10480294;28;20048;-83
2024/03/05 07:59:39;;;;;;;18.10;3.58;;;;;;;33.63;33.04;100692.03;10479048;28;20115;-81
2024/03/05 08:05:04;;;;;;;12.50;2.67;;;;;;;35.66;26.91;100696.50;10477942;28;20132;-80
2024/03/05 08:10:29;;;;;;;6.65;2.00;;;;;;;34.07;26.65;100700.34;10470973;28;20039;-80
2024/03/05 08:15:52;;;;;;;10.05;2.17;;;;;;;35.48;25.81;100716.41;10505241;28;20056;-80
2024/03/05 08:21:16;;;;;;;15.27;2.60;;;;;;;35.10;26.43;100714.28;10474253;28;20041;-80
2024/03/05 08:26:39;;;;;;;14.13;4.13;;;;;;;31.26;30.96;100710.19;10475994;28;20105;-80
2024/03/05 08:32:03;;;;;;;16.95;3.88;;;;;;;27.36;36.07;100704.91;10491758;28;20124;-81
2024/03/05 08:37:27;;;;;;;19.23;2.90;;;;;;;25.12;39.59;100717.00;10478246;28;20428;-83
2024/03/05 08:42:51;;;;;;;19.63;5.60;;;;;;;25.06;39.41;100720.88;10475259;28;20079;-82
2024/03/05 08:48:14;;;;;;;19.40;4.65;;;;;;;24.55;39.80;100718.56;10487939;28;20045;-83
2024/03/05 08:53:38;;;;;;;15.10;3.47;;;;;;;23.27;42.47;100720.09;10477663;28;20072;-82
2024/03/05 08:59:00;;;;;;;15.25;4.00;;;;;;;23.72;42.18;100712.97;10491539;28;20050;-83
2024/03/05 09:04:24;;;;;;;20.85;3.58;;;;;;;23.78;41.61;100714.53;10477664;28;20062;-82
2024/03/05 09:09:48;;;;;;;19.27;4.30;;;;;;;25.83;38.90;100721.78;10505264;28;20131;-82
2024/03/05 09:15:12;;;;;;;22.58;3.47;;;;;;;25.33;38.83;100719.63;10504517;28;20045;-83
2024/03/05 09:20:34;;;;;;;21.80;3.42;;;;;;;24.77;39.80;100715.81;10488311;28;20135;-80
2024/03/05 09:25:59;;;;;;;17.45;2.53;;;;;;;24.44;40.96;100724.44;10488501;28;20445;-81
2024/03/05 09:31:21;;;;;;;23.02;2.90;;;;;;;27.88;37.40;100715.59;10436340;28;20050;-82
2024/03/05 09:36:44;;;;;;;12.88;2.30;;;;;;;28.05;35.91;100705.50;10509336;28;20053;-80
2024/03/05 09:42:09;;;;;;;17.00;2.55;;;;;;;26.17;38.67;100711.06;10518801;28;20055;-80
2024/03/05 09:47:35;;;;;;;14.38;3.22;;;;;;;29.12;34.58;100700.00;10505102;28;20049;-80
2024/03/05 09:52:59;;;;;;;19.00;2.60;;;;;;;30.39;33.08;100704.41;10517258;28;20500;-86
2024/03/05 09:58:34;;;;;;;15.60;2.05;;;;;;;27.30;37.07;100697.09;10503789;28;20051;-83
2024/03/05 10:03:57;;;;;;;14.93;2.30;;;;;;;26.64;38.92;100691.56;10476963;28;20048;-82
2024/03/05 10:09:20;;;;;;;9.10;2.75;;;;;;;29.24;34.17;100693.81;10469893;28;20496;-82
2024/03/05 10:14:43;;;;;;;23.13;7.72;;;;;;;28.78;34.21;100694.91;10489158;28;20044;-82
2024/03/05 10:20:10;;;;;;;11.27;2.88;;;;;;;26.58;36.67;100694.59;10476535;28;20443;-82
2024/03/05 10:25:34;;;;;;;11.25;3.45;;;;;;;25.00;39.79;100691.44;10509621;28;20044;-82
2024/03/05 10:31:01;;;;;;;9.77;1.83;;;;;;;23.84;41.53;100693.59;10489021;28;20036;-82
2024/03/05 10:36:31;;;;;;;14.13;2.83;;;;;;;23.53;43.58;100702.97;10478323;28;20061;-83
2024/03/05 10:41:59;;;;;;;13.65;2.95;;;;;;;23.64;43.17;100692.63;10497834;28;20381;-82
2024/03/05 10:47:23;;;;;;;10.40;2.78;;;;;;;23.32;43.74;100683.06;10510890;28;20578;-84
2024/03/05 10:52:47;;;;;;;12.02;1.83;;;;;;;22.40;45.82;100681.91;10498055;28;20071;-83
2024/03/05 10:58:18;;;;;;;12.80;2.58;;;;;;;21.61;49.63;100689.84;10478586;28;20074;-82
2024/03/05 11:03:45;;;;;;;10.07;2.63;;;;;;;21.38;53.63;100683.38;10497385;28;20052;-83
2024/03/05 11:09:09;;;;;;;10.80;2.80;;;;;;;21.23;56.00;100673.09;10480869;28;20122;-83
2024/03/05 11:14:33;;;;;;;11.45;2.10;;;;;;;21.19;58.35;100676.81;10510444;28;20447;-83
2024/03/05 11:19:57;;;;;;;11.95;2.20;;;;;;;20.85;61.83;100679.53;10470325;28;20059;-83
2024/03/05 11:25:31;;;;;;;12.57;3.40;;;;;;;19.96;72.57;100680.03;10479807;28;20114;-85
2024/03/05 11:31:10;;;;;;;11.82;3.17;;;;;;;19.96;75.90;100672.00;10495652;28;20416;-83
2024/03/05 11:36:34;;;;;;;12.95;2.25;;;;;;;20.56;72.28;100669.59;10508369;28;20076;-82
2024/03/05 11:41:59;;;;;;;12.05;2.67;;;;;;;21.11;68.28;100681.47;10484491;28;20458;-82
2024/03/05 11:47:23;;;;;;;13.13;2.45;;;;;;;21.40;65.88;100686.88;10493514;28;20456;-84
2024/03/05 11:52:48;;;;;;;11.43;2.97;;;;;;;21.76;63.97;100684.00;10481195;28;20053;-85
2024/03/05 11:58:11;;;;;;;23.52;12.65;;;;;;;20.95;75.01;100672.97;10479358;28;20141;-84
2024/03/05 12:03:34;;;;;;;13.45;4.18;;;;;;;19.77;99.99;100676.94;10489545;28;20492;-85
2024/03/05 12:09:09;;;;;;;17.10;4.78;;;;;;;19.30;100.00;100677.06;10506013;28;20048;-80
2024/03/05 12:14:34;;;;;;;14.63;4.38;;;;;;;20.82;100.00;100687.66;10487442;28;20048;-81
2024/03/05 12:19:57;;;;;;;11.25;2.50;;;;;;;21.23;100.00;100675.78;10472370;28;20041;-85
2024/03/05 12:25:27;;;;;;;9.88;2.78;;;;;;;20.04;100.00;100661.09;10452545;28;20155;-84
2024/03/05 12:30:49;;;;;;;12.25;3.45;;;;;;;19.62;100.00;100661.22;10491535;28;20052;-81
2024/03/05 12:36:15;;;;;;;15.00;3.90;;;;;;;19.27;100.00;100663.75;10518040;28;20060;-80
2024/03/05 12:41:40;;;;;;;12.73;2.85;;;;;;;19.64;100.00;100659.38;10511921;28;20139;-78
2024/03/05 12:47:10;;;;;;;23.55;4.70;;;;;;;20.17;100.00;100670.59;10490534;28;20145;-83
2024/03/05 12:52:33;;;;;;;12.23;3.35;;;;;;;20.32;100.00;100674.69;10486501;28;20412;-80
2024/03/05 12:58:06;;;;;;;11.68;3.13;;;;;;;20.78;100.00;100688.69;10493858;28;20048;-81
2024/03/05 13:03:29;;;;;;;9.90;2.67;;;;;;;21.02;99.21;100684.41;10475750;28;20048;-80
2024/03/05 13:08:52;;;;;;;9.98;1.83;;;;;;;20.87;98.21;100696.47;10470820;28;20053;-80
2024/03/05 13:14:16;;;;;;;12.05;3.08;;;;;;;20.82;100.00;100679.59;10469151;28;20087;-80
2024/03/05 13:19:39;;;;;;;12.52;2.40;;;;;;;20.40;100.00;100689.72;10436325;28;20052;-83
2024/03/05 13:25:01;;;;;;;16.88;2.97;;;;;;;20.35;100.00;100690.75;10459788;28;20148;-81
2024/03/05 13:30:26;;;;;;;7.72;2.15;;;;;;;20.31;100.00;100692.56;10459709;28;20064;-82
2024/03/05 13:35:49;;;;;;;15.95;2.42;;;;;;;20.42;100.00;100685.16;10449541;28;20136;-83
2024/03/05 13:41:12;;;;;;;10.07;2.58;;;;;;;20.75;100.00;100685.19;10460609;28;20052;-81
2024/03/05 13:46:37;;;;;;;15.77;2.55;;;;;;;20.97;100.00;100686.34;10511078;28;20052;-81
2024/03/05 13:52:00;;;;;;;12.43;2.15;;;;;;;20.85;99.44;100684.91;10514297;28;20049;-81
2024/03/05 13:57:22;;;;;;;12.18;3.20;;;;;;;20.72;99.13;100679.91;10495752;28;20437;-80
2024/03/05 14:02:46;;;;;;;12.13;8.73;;;;;;;20.28;100.00;100688.16;10492275;28;20060;-79
2024/03/05 14:08:11;;;;;;;8.27;2.50;;;;;;;19.95;100.00;100705.09;10478663;28;20068;-80
2024/03/05 14:13:33;;;;;;;12.73;1.85;;;;;;;19.56;100.00;100714.06;10477680;28;20457;-80
2024/03/05 14:18:58;;;;;;;12.82;2.83;;;;;;;18.18;100.00;100718.38;10465578;28;20050;-81
2024/03/05 14:24:23;;;;;;;10.18;2.58;;;;;;;17.63;100.00;100722.81;10481684;28;20053;-84
2024/03/05 14:29:46;;;;;;;12.10;2.60;;;;;;;17.77;100.00;100712.81;10496636;28;20063;-82
2024/03/05 14:35:11;;;;;;;12.50;3.50;;;;;;;18.13;100.00;100711.34;10466725;28;20045;-81
2024/03/05 14:40:33;;;;;;;10.02;3.35;;;;;;;18.05;100.00;100710.63;10492534;28;20492;-79
2024/03/05 14:45:56;;;;;;;17.45;6.28;;;;;;;17.56;100.00;100715.75;10480881;28;20049;-81
2024/03/05 14:51:20;;;;;;;17.35;8.23;;;;;;;17.21;100.00;100711.75;10471209;28;20128;-80
2024/03/05 14:56:43;;;;;;;11.65;2.17;;;;;;;16.83;100.00;100716.63;10452928;28;20063;-81
2024/03/05 15:02:06;;;;;;;14.98;6.38;;;;;;;16.60;100.00;100731.09;10507990;28;20051;-83
2024/03/05 15:07:31;;;;;;;8.90;2.50;;;;;;;16.43;100.00;100732.09;10480326;28;20053;-82
2024/03/05 15:12:53;;;;;;;49.47;23.38;;;;;;;16.62;100.00;100723.97;10453324;28;20045;-86
2024/03/05 15:18:16;;;;;;;17.38;3.83;;;;;;;16.89;100.00;100730.78;10465242;28;20413;-81
2024/03/05 15:23:40;;;;;;;10.27;2.65;;;;;;;16.94;100.00;100730.72;10520958;28;20052;-80
2024/03/05 15:29:02;;;;;;;10.57;3.10;;;;;;;16.63;100.00;100731.06;10476947;28;20091;-82
2024/03/05 15:34:25;;;;;;;64.50;30.38;;;;;;;16.37;100.00;100733.03;10445237;28;20056;-81
2024/03/05 15:39:49;;;;;;;26.75;11.95;;;;;;;16.24;100.00;100742.91;10477430;28;20105;-82
2024/03/05 15:45:13;;;;;;;38.10;18.15;;;;;;;16.06;100.00;100736.84;10479550;28;20636;-83
2024/03/05 15:50:35;;;;;;;20.00;10.55;;;;;;;15.62;100.00;100734.47;10478029;28;20414;-78
2024/03/05 15:56:11;;;;;;;21.67;9.65;;;;;;;15.54;100.00;100721.22;10494349;28;20045;-82
2024/03/05 16:01:35;;;;;;;16.35;7.25;;;;;;;15.35;100.00;100730.16;10518490;28;20218;-80
2024/03/05 16:06:58;;;;;;;18.45;10.43;;;;;;;15.00;100.00;100727.59;10479187;28;20049;-82
2024/03/05 16:12:23;;;;;;;31.88;16.70;;;;;;;14.73;100.00;100725.91;10490224;28;20060;-81
2024/03/05 16:17:46;;;;;;;21.52;8.68;;;;;;;14.36;100.00;100723.28;10477669;28;20099;-80
2024/03/05 16:23:09;;;;;;;21.92;9.82;;;;;;;14.13;100.00;100733.00;10477374;28;20051;-80
2024/03/05 16:28:37;;;;;;;29.52;14.38;;;;;;;13.90;100.00;100725.03;10490887;28;20059;-82
2024/03/05 16:34:01;;;;;;;22.90;13.90;;;;;;;14.03;100.00;100725.91;10489166;28;20045;-81
2024/03/05 16:39:25;;;;;;;80.38;51.00;;;;;;;13.88;100.00;100737.38;10451754;28;20135;-80
2024/03/05 16:44:49;;;;;;;35.35;24.17;;;;;;;13.82;100.00;100741.81;10471332;28;20146;-79
2024/03/05 16:50:15;;;;;;;30.02;19.63;;;;;;;13.93;100.00;100738.28;10469218;28;20052;-81
2024/03/05 16:55:38;;;;;;;51.63;39.17;;;;;;;13.87;100.00;100740.03;10494770;28;20044;-79
2024/03/05 17:01:06;;;;;;;28.88;19.13;;;;;;;13.73;100.00;100737.34;10488131;28;20055;-80
2024/03/05 17:06:29;;;;;;;16.88;5.43;;;;;;;13.65;100.00;100725.88;10473922;28;20408;-81
2024/03/05 17:11:51;;;;;;;10.60;2.47;;;;;;;13.87;100.00;100724.13;10469133;28;20045;-80
2024/03/05 17:17:16;;;;;;;18.10;2.60;;;;;;;14.14;100.00;100710.88;10475179;28;20044;-79
2024/03/05 17:22:41;;;;;;;14.60;2.83;;;;;;;14.32;100.00;100709.97;10467960;28;20072;-78
2024/03/05 17:28:05;;;;;;;17.00;2.90;;;;;;;14.30;100.00;100720.63;10487265;28;20057;-78
2024/03/05 17:33:31;;;;;;;13.70;3.38;;;;;;;14.37;100.00;100740.09;10454722;28;20110;-81
2024/03/05 17:38:54;;;;;;;12.63;3.03;;;;;;;14.23;100.00;100736.56;10446612;28;20148;-79
2024/03/05 17:44:17;;;;;;;20.25;4.28;;;;;;;14.21;100.00;100747.16;10479335;28;20053;-80
2024/03/05 17:49:42;;;;;;;22.20;5.47;;;;;;;14.12;100.00;100747.13;10485553;28;20534;-79
2024/03/05 17:55:07;;;;;;;13.45;5.65;;;;;;;14.04;100.00;100738.31;10486109;28;20037;-80
2024/03/05 18:00:40;;;;;;;15.63;5.40;;;;;;;13.97;100.00;100744.50;10477549;28;20037;-81
2024/03/05 18:06:04;;;;;;;13.02;4.00;;;;;;;14.05;100.00;100736.50;10488229;28;20751;-82
2024/03/05 18:11:28;;;;;;;9.75;3.53;;;;;;;13.94;100.00;100737.41;10486401;28;20056;-81
2024/03/05 18:16:50;;;;;;;13.85;4.20;;;;;;;13.81;100.00;100742.69;10485853;28;20496;-82
2024/03/05 18:22:16;;;;;;;20.90;13.48;;;;;;;13.64;100.00;100755.03;10472464;28;20041;-81
2024/03/05 18:27:39;;;;;;;21.00;10.38;;;;;;;13.46;100.00;100763.78;10472607;28;20064;-82
2024/03/05 18:33:05;;;;;;;28.88;10.05;;;;;;;13.32;100.00;100754.91;10496579;28;20396;-82
2024/03/05 18:38:29;;;;;;;13.60;5.00;;;;;;;13.21;100.00;100751.31;10500182;28;20127;-87
2024/03/05 18:43:52;;;;;;;44.70;23.90;;;;;;;13.08;100.00;100751.22;10498989;28;20366;-78
2024/03/05 18:49:15;;;;;;;24.88;17.58;;;;;;;13.01;100.00;100761.78;10477944;28;20052;-79
2024/03/05 18:54:39;;;;;;;12.85;5.00;;;;;;;12.94;100.00;100749.38;10448061;28;20102;-81
2024/03/05 19:00:02;;;;;;;13.30;3.72;;;;;;;12.92;100.00;100748.50;10525763;28;20044;-81
2024/03/05 19:05:25;;;;;;;13.02;2.97;;;;;;;13.04;100.00;100756.50;10470903;28;20045;-83
2024/03/05 19:10:49;;;;;;;15.85;3.47;;;;;;;13.13;100.00;100759.22;10496920;28;20048;-82
2024/03/05 19:16:14;;;;;;;11.35;2.72;;;;;;;13.21;100.00;100760.16;10483810;28;20048;-84
2024/03/05 19:21:37;;;;;;;11.30;2.80;;;;;;;13.28;100.00;100761.97;10498992;28;20392;-85
2024/03/05 19:27:01;;;;;;;15.45;4.38;;;;;;;13.64;100.00;100765.63;10503633;28;20047;-82
2024/03/05 19:32:23;;;;;;;17.30;10.27;;;;;;;13.74;100.00;100759.47;10489925;28;20047;-81
2024/03/05 19:37:49;;;;;;;15.40;7.85;;;;;;;13.34;100.00;100783.19;10480523;28;20040;-78
2024/03/05 19:43:13;;;;;;;12.93;4.18;;;;;;;13.41;100.00;100778.81;10495825;28;20041;-78
2024/03/05 19:48:36;;;;;;;11.18;3.20;;;;;;;13.44;100.00;100785.03;10492224;28;20110;-79
2024/03/05 19:54:00;;;;;;;17.10;7.03;;;;;;;13.49;100.00;100785.91;10466876;28;20064;-82
2024/03/05 19:59:24;;;;;;;12.02;3.58;;;;;;;13.42;100.00;100792.06;10472255;28;20403;-79
2024/03/05 20:04:47;;;;;;;25.92;21.65;;;;;;;13.22;100.00;100790.19;10456321;28;20044;-82
2024/03/05 20:10:11;;;;;;;41.78;37.50;;;;;;;12.94;100.00;100789.13;10466479;28;20480;-84
2024/03/05 20:15:35;;;;;;;68.28;61.60;;;;;;;12.72;100.00;100794.28;10476477;28;20036;-84
2024/03/05 20:20:57;;;;;;;28.38;24.58;;;;;;;12.45;100.00;100806.41;10477899;28;20055;-85
2024/03/05 20:26:20;;;;;;;17.35;10.02;;;;;;;12.36;100.00;100800.16;10492881;28;20574;-83
2024/03/05 20:31:44;;;;;;;13.18;7.15;;;;;;;12.72;100.00;100810.19;10478168;28;20040;-84
2024/03/05 20:37:07;;;;;;;20.17;5.60;;;;;;;12.89;100.00;100801.44;10489018;28;20094;-84
2024/03/05 20:42:30;;;;;;;19.27;9.93;;;;;;;13.16;100.00;100807.84;10471425;28;20044;-84
2024/03/05 20:47:54;;;;;;;20.25;13.30;;;;;;;12.96;100.00;100792.66;10491116;28;20057;-83
2024/03/05 20:53:16;;;;;;;53.33;40.13;;;;;;;12.64;100.00;100806.59;10477324;28;20048;-84
2024/03/05 20:58:39;;;;;;;28.80;20.00;;;;;;;12.34;100.00;100791.31;10477473;28;20044;-85
2024/03/05 21:04:03;;;;;;;21.85;16.50;;;;;;;12.32;100.00;100798.38;10478257;28;20048;-85
2024/03/05 21:09:25;;;;;;;20.23;11.60;;;;;;;12.42;100.00;100796.69;10456608;28;20536;-85
2024/03/05 21:14:48;;;;;;;15.82;10.07;;;;;;;12.14;100.00;100802.63;10477388;28;20055;-86
2024/03/05 21:20:15;;;;;;;18.42;8.60;;;;;;;11.91;100.00;100800.59;10476733;28;20463;-84
2024/03/05 21:25:38;;;;;;;12.13;4.18;;;;;;;11.66;100.00;100816.16;10473587;28;20059;-85
2024/03/05 21:31:01;;;;;;;25.10;12.85;;;;;;;11.64;100.00;100813.47;10477723;28;20536;-84
2024/03/05 21:36:26;;;;;;;10.68;4.80;;;;;;;11.64;100.00;100820.53;10478093;28;20063;-85
2024/03/05 21:41:48;;;;;;;16.27;7.22;;;;;;;11.67;100.00;100813.53;10470650;28;20061;-85
2024/03/05 21:47:11;;;;;;;25.02;11.75;;;;;;;11.65;100.00;100807.31;10477386;28;20572;-85
2024/03/05 21:52:35;;;;;;;12.20;4.20;;;;;;;11.53;100.00;100812.47;10477146;28;20523;-86
2024/03/05 21:57:57;;;;;;;13.73;3.55;;;;;;;11.44;100.00;100823.81;10441347;28;20056;-86
2024/03/05 22:03:20;;;;;;;7.93;3.42;;;;;;;11.41;100.00;100839.63;10485906;28;20040;-85
2024/03/05 22:08:44;;;;;;;10.45;4.20;;;;;;;11.51;100.00;100840.63;10503592;28;20095;-85
2024/03/05 22:14:09;;;;;;;11.50;3.70;;;;;;;11.50;100.00;100842.38;10517075;28;20040;-85
2024/03/05 22:19:32;;;;;;;19.92;9.82;;;;;;;11.53;100.00;100845.09;10474375;28;20052;-85
2024/03/05 22:24:57;;;;;;;10.93;5.82;;;;;;;11.53;100.00;100858.31;10500322;28;20257;-85
2024/03/05 22:30:20;;;;;;;11.63;6.25;;;;;;;11.34;100.00;100858.03;10454396;28;20045;-85
2024/03/05 22:35:42;;;;;;;18.63;7.32;;;;;;;11.37;100.00;100860.69;10499975;28;20055;-86
2024/03/05 22:41:07;;;;;;;12.52;5.75;;;;;;;11.36;100.00;100865.09;10479903;28;20121;-85
2024/03/05 22:46:29;;;;;;;14.57;4.28;;;;;;;11.07;100.00;100877.91;10469539;28;20044;-85
2024/03/05 22:51:52;;;;;;;9.55;3.53;;;;;;;11.06;100.00;100880.50;10508915;28;20509;-85
2024/03/05 22:57:16;;;;;;;8.43;3.00;;;;;;;11.25;100.00;100887.84;10524752;28;20109;-84
2024/03/05 23:02:38;;;;;;;8.77;2.80;;;;;;;11.31;100.00;100892.34;10510169;28;20052;-86
2024/03/05 23:08:01;;;;;;;9.35;3.00;;;;;;;11.38;100.00;100894.19;10482825;28;20390;-85
2024/03/05 23:13:26;;;;;;;13.20;4.95;;;;;;;11.19;100.00;100906.25;10476923;28;20494;-85
2024/03/05 23:18:48;;;;;;;10.07;2.40;;;;;;;11.97;100.00;100900.31;10509661;28;20052;-85
2024/03/05 23:24:11;;;;;;;9.65;3.70;;;;;;;12.09;100.00;100899.56;10481028;28;20068;-86
2024/03/05 23:29:35;;;;;;;6.60;3.78;;;;;;;12.31;100.00;100905.13;10480762;28;20045;-85
2024/03/05 23:34:58;;;;;;;6.72;2.90;;;;;;;12.78;100.00;100902.06;10485715;28;20047;-85
2024/03/05 23:40:22;;;;;;;6.20;2.45;;;;;;;12.89;100.00;100897.72;10480903;28;20412;-85
2024/03/05 23:45:46;;;;;;;5.85;2.85;;;;;;;13.11;100.00;100893.50;10464305;28;20488;-85
2024/03/05 23:51:11;;;;;;;9.20;2.70;;;;;;;13.31;100.00;100901.63;10495369;28;20048;-85
2024/03/05 23:56:33;;;;;;;11.73;2.80;;;;;;;13.46;100.00;100896.38;10481051;28;20048;-85
